sensor_id;sensor_type;location;lat;lon;timestamp;temperature;humidity
9752;DHT22;4915;51.226;5.966;2022-08-01T00:01:51;19.60;99.90
9752;DHT22;4915;51.226;5.966;2022-08-01T00:04:18;19.60;99.90
9752;DHT22;4915;51.226;5.966;2022-08-01T00:06:45;19.60;99.90
9752;DHT22;4915;51.226;5.966;2022-08-01T00:09:12;19.60;99.90
9752;DHT22;4915;51.226;5.966;2022-08-01T00:11:39;19.60;99.90
9752;DHT22;4915;51.226;5.966;2022-08-01T00:14:08;19.50;99.90
9752;DHT22;4915;51.226;5.966;2022-08-01T00:16:36;19.60;99.90
9752;DHT22;4915;51.226;5.966;2022-08-01T00:19:04;19.60;99.90
9752;DHT22;4915;51.226;5.966;2022-08-01T00:21:31;19.60;99.90
9752;DHT22;4915;51.226;5.966;2022-08-01T00:23:58;19.60;99.90
9752;DHT22;4915;51.226;5.966;2022-08-01T00:26:25;19.60;99.90
9752;DHT22;4915;51.226;5.966;2022-08-01T00:28:53;19.60;99.90
9752;DHT22;4915;51.226;5.966;2022-08-01T00:31:21;19.70;99.90
9752;DHT22;4915;51.226;5.966;2022-08-01T00:33:48;19.70;99.90
9752;DHT22;4915;51.226;5.966;2022-08-01T00:36:15;19.70;99.90
9752;DHT22;4915;51.226;5.966;2022-08-01T00:38:42;19.70;99.90
9752;DHT22;4915;51.226;5.966;2022-08-01T00:41:09;19.70;99.90
9752;DHT22;4915;51.226;5.966;2022-08-01T00:43:36;19.70;99.90
9752;DHT22;4915;51.226;5.966;2022-08-01T00:46:03;19.70;99.90
9752;DHT22;4915;51.226;5.966;2022-08-01T00:48:31;19.80;99.90
9752;DHT22;4915;51.226;5.966;2022-08-01T00:50:58;19.80;99.90
9752;DHT22;4915;51.226;5.966;2022-08-01T00:53:26;19.80;99.90
9752;DHT22;4915;51.226;5.966;2022-08-01T00:55:53;19.80;99.90
9752;DHT22;4915;51.226;5.966;2022-08-01T00:58:20;19.70;99.90
9752;DHT22;4915;51.226;5.966;2022-08-01T01:00:47;19.80;99.90
9752;DHT22;4915;51.226;5.966;2022-08-01T01:03:14;19.80;99.90
9752;DHT22;4915;51.226;5.966;2022-08-01T01:05:51;19.80;99.90
9752;DHT22;4915;51.226;5.966;2022-08-01T01:08:27;19.80;99.90
9752;DHT22;4915;51.226;5.966;2022-08-01T01:11:03;19.70;99.90
9752;DHT22;4915;51.226;5.966;2022-08-01T01:13:35;19.70;99.90
9752;DHT22;4915;51.226;5.966;2022-08-01T01:16:10;19.70;99.90
9752;DHT22;4915;51.226;5.966;2022-08-01T01:18:43;19.70;99.90
9752;DHT22;4915;51.226;5.966;2022-08-01T01:21:35;19.70;99.90
9752;DHT22;4915;51.226;5.966;2022-08-01T01:24:11;19.70;99.90
9752;DHT22;4915;51.226;5.966;2022-08-01T01:26:45;19.70;99.90
9752;DHT22;4915;51.226;5.966;2022-08-01T01:29:21;19.70;99.90
9752;DHT22;4915;51.226;5.966;2022-08-01T01:31:51;19.70;99.90
9752;DHT22;4915;51.226;5.966;2022-08-01T01:34:20;19.70;99.90
9752;DHT22;4915;51.226;5.966;2022-08-01T01:36:50;19.60;99.90
9752;DHT22;4915;51.226;5.966;2022-08-01T01:39:20;19.70;99.90
9752;DHT22;4915;51.226;5.966;2022-08-01T01:41:48;19.60;99.90
9752;DHT22;4915;51.226;5.966;2022-08-01T01:44:18;19.60;99.90
9752;DHT22;4915;51.226;5.966;2022-08-01T01:46:47;19.60;99.90
9752;DHT22;4915;51.226;5.966;2022-08-01T01:49:15;19.50;99.90
9752;DHT22;4915;51.226;5.966;2022-08-01T01:51:43;19.50;99.90
9752;DHT22;4915;51.226;5.966;2022-08-01T01:54:11;19.50;99.90
9752;DHT22;4915;51.226;5.966;2022-08-01T01:56:40;19.40;99.90
9752;DHT22;4915;51.226;5.966;2022-08-01T01:59:18;19.50;99.90
9752;DHT22;4915;51.226;5.966;2022-08-01T02:01:47;19.50;99.90
9752;DHT22;4915;51.226;5.966;2022-08-01T02:04:16;19.50;99.90
9752;DHT22;4915;51.226;5.966;2022-08-01T02:06:44;19.50;99.90
9752;DHT22;4915;51.226;5.966;2022-08-01T02:09:14;19.40;99.90
9752;DHT22;4915;51.226;5.966;2022-08-01T02:11:43;19.30;99.90
9752;DHT22;4915;51.226;5.966;2022-08-01T02:14:11;19.30;99.90
9752;DHT22;4915;51.226;5.966;2022-08-01T02:16:44;19.30;99.90
9752;DHT22;4915;51.226;5.966;2022-08-01T02:19:11;19.30;99.90
9752;DHT22;4915;51.226;5.966;2022-08-01T02:21:40;19.40;99.90
9752;DHT22;4915;51.226;5.966;2022-08-01T02:24:13;19.30;99.90
9752;DHT22;4915;51.226;5.966;2022-08-01T02:26:46;19.40;99.90
9752;DHT22;4915;51.226;5.966;2022-08-01T02:29:18;19.40;99.90
9752;DHT22;4915;51.226;5.966;2022-08-01T02:31:48;19.50;99.90
9752;DHT22;4915;51.226;5.966;2022-08-01T02:34:19;19.40;99.90
9752;DHT22;4915;51.226;5.966;2022-08-01T02:36:47;19.40;99.90
9752;DHT22;4915;51.226;5.966;2022-08-01T02:39:17;19.40;99.90
9752;DHT22;4915;51.226;5.966;2022-08-01T02:41:48;19.40;99.90
9752;DHT22;4915;51.226;5.966;2022-08-01T02:44:20;19.40;99.90
9752;DHT22;4915;51.226;5.966;2022-08-01T02:46:54;19.40;99.90
9752;DHT22;4915;51.226;5.966;2022-08-01T02:49:24;19.40;99.90
9752;DHT22;4915;51.226;5.966;2022-08-01T02:51:54;19.40;99.90
9752;DHT22;4915;51.226;5.966;2022-08-01T02:54:22;19.40;99.90
9752;DHT22;4915;51.226;5.966;2022-08-01T02:56:50;19.40;99.90
9752;DHT22;4915;51.226;5.966;2022-08-01T02:59:21;19.40;99.90
9752;DHT22;4915;51.226;5.966;2022-08-01T03:01:54;19.40;99.90
9752;DHT22;4915;51.226;5.966;2022-08-01T03:04:22;19.50;99.90
9752;DHT22;4915;51.226;5.966;2022-08-01T03:06:51;19.50;99.90
9752;DHT22;4915;51.226;5.966;2022-08-01T03:09:19;19.50;99.90
9752;DHT22;4915;51.226;5.966;2022-08-01T03:11:48;19.50;99.90
9752;DHT22;4915;51.226;5.966;2022-08-01T03:14:16;19.50;99.90
9752;DHT22;4915;51.226;5.966;2022-08-01T03:16:45;19.60;99.90
9752;DHT22;4915;51.226;5.966;2022-08-01T03:19:15;19.50;99.90
9752;DHT22;4915;51.226;5.966;2022-08-01T03:21:45;19.50;99.90
9752;DHT22;4915;51.226;5.966;2022-08-01T03:24:14;19.50;99.90
9752;DHT22;4915;51.226;5.966;2022-08-01T03:26:43;19.50;99.90
9752;DHT22;4915;51.226;5.966;2022-08-01T03:29:16;19.50;99.90
9752;DHT22;4915;51.226;5.966;2022-08-01T03:31:45;19.50;99.90
9752;DHT22;4915;51.226;5.966;2022-08-01T03:34:14;19.40;99.90
9752;DHT22;4915;51.226;5.966;2022-08-01T03:36:46;19.40;99.90
9752;DHT22;4915;51.226;5.966;2022-08-01T03:39:15;19.50;99.90
9752;DHT22;4915;51.226;5.966;2022-08-01T03:41:54;19.40;99.90
9752;DHT22;4915;51.226;5.966;2022-08-01T03:44:26;19.40;99.90
9752;DHT22;4915;51.226;5.966;2022-08-01T03:46:59;19.40;99.90
9752;DHT22;4915;51.226;5.966;2022-08-01T03:49:30;19.40;99.90
9752;DHT22;4915;51.226;5.966;2022-08-01T03:52:01;19.40;99.90
9752;DHT22;4915;51.226;5.966;2022-08-01T03:54:33;19.40;99.90
9752;DHT22;4915;51.226;5.966;2022-08-01T03:57:02;19.30;99.90
9752;DHT22;4915;51.226;5.966;2022-08-01T03:59:30;19.30;99.90
9752;DHT22;4915;51.226;5.966;2022-08-01T04:01:59;19.30;99.90
9752;DHT22;4915;51.226;5.966;2022-08-01T04:04:27;19.40;99.90
9752;DHT22;4915;51.226;5.966;2022-08-01T04:06:55;19.30;99.90
9752;DHT22;4915;51.226;5.966;2022-08-01T04:09:22;19.30;99.90
9752;DHT22;4915;51.226;5.966;2022-08-01T04:11:49;19.40;99.90
9752;DHT22;4915;51.226;5.966;2022-08-01T04:14:16;19.40;99.90
9752;DHT22;4915;51.226;5.966;2022-08-01T04:16:43;19.40;99.90
9752;DHT22;4915;51.226;5.966;2022-08-01T04:19:10;19.40;99.90
9752;DHT22;4915;51.226;5.966;2022-08-01T04:21:39;19.30;99.90
9752;DHT22;4915;51.226;5.966;2022-08-01T04:24:10;19.30;99.90
9752;DHT22;4915;51.226;5.966;2022-08-01T04:26:40;19.30;99.90
9752;DHT22;4915;51.226;5.966;2022-08-01T04:29:09;19.40;99.90
9752;DHT22;4915;51.226;5.966;2022-08-01T04:31:39;19.40;99.90
9752;DHT22;4915;51.226;5.966;2022-08-01T04:34:09;19.40;99.90
9752;DHT22;4915;51.226;5.966;2022-08-01T04:36:40;19.40;99.90
9752;DHT22;4915;51.226;5.966;2022-08-01T04:39:08;19.40;99.90
9752;DHT22;4915;51.226;5.966;2022-08-01T04:41:36;19.40;99.90
9752;DHT22;4915;51.226;5.966;2022-08-01T04:44:04;19.40;99.90
9752;DHT22;4915;51.226;5.966;2022-08-01T04:46:34;19.40;99.90
9752;DHT22;4915;51.226;5.966;2022-08-01T04:49:04;19.40;99.90
9752;DHT22;4915;51.226;5.966;2022-08-01T04:51:31;19.40;99.90
9752;DHT22;4915;51.226;5.966;2022-08-01T04:54:00;19.40;99.90
9752;DHT22;4915;51.226;5.966;2022-08-01T04:56:27;19.40;99.90
9752;DHT22;4915;51.226;5.966;2022-08-01T04:58:54;19.40;99.90
9752;DHT22;4915;51.226;5.966;2022-08-01T05:01:35;19.40;99.90
9752;DHT22;4915;51.226;5.966;2022-08-01T05:04:02;19.40;99.90
9752;DHT22;4915;51.226;5.966;2022-08-01T05:06:30;19.40;99.90
9752;DHT22;4915;51.226;5.966;2022-08-01T05:08:57;19.40;99.90
9752;DHT22;4915;51.226;5.966;2022-08-01T05:11:25;19.50;99.90
9752;DHT22;4915;51.226;5.966;2022-08-01T05:13:52;19.40;99.90
9752;DHT22;4915;51.226;5.966;2022-08-01T05:16:19;19.40;99.90
9752;DHT22;4915;51.226;5.966;2022-08-01T05:18:46;19.40;99.90
9752;DHT22;4915;51.226;5.966;2022-08-01T05:21:13;19.60;99.90
9752;DHT22;4915;51.226;5.966;2022-08-01T05:23:40;19.60;99.90
9752;DHT22;4915;51.226;5.966;2022-08-01T05:26:08;19.70;99.90
9752;DHT22;4915;51.226;5.966;2022-08-01T05:28:36;19.70;99.90
9752;DHT22;4915;51.226;5.966;2022-08-01T05:31:03;19.70;99.90
9752;DHT22;4915;51.226;5.966;2022-08-01T05:33:30;19.70;99.90
9752;DHT22;4915;51.226;5.966;2022-08-01T05:35:57;19.80;99.90
9752;DHT22;4915;51.226;5.966;2022-08-01T05:38:25;19.80;99.90
9752;DHT22;4915;51.226;5.966;2022-08-01T05:40:52;19.80;99.90
9752;DHT22;4915;51.226;5.966;2022-08-01T05:43:19;19.80;99.90
9752;DHT22;4915;51.226;5.966;2022-08-01T05:45:47;19.90;99.90
9752;DHT22;4915;51.226;5.966;2022-08-01T05:48:14;19.80;99.90
9752;DHT22;4915;51.226;5.966;2022-08-01T05:50:41;19.80;99.90
9752;DHT22;4915;51.226;5.966;2022-08-01T05:53:08;19.80;99.90
9752;DHT22;4915;51.226;5.966;2022-08-01T05:55:36;19.80;99.90
9752;DHT22;4915;51.226;5.966;2022-08-01T05:58:03;19.80;99.90
9752;DHT22;4915;51.226;5.966;2022-08-01T06:00:30;19.70;99.90
9752;DHT22;4915;51.226;5.966;2022-08-01T06:02:58;19.80;99.90
9752;DHT22;4915;51.226;5.966;2022-08-01T06:05:25;19.80;99.90
9752;DHT22;4915;51.226;5.966;2022-08-01T06:07:52;19.80;99.90
9752;DHT22;4915;51.226;5.966;2022-08-01T06:10:19;19.80;99.90
9752;DHT22;4915;51.226;5.966;2022-08-01T06:12:46;19.80;99.90
9752;DHT22;4915;51.226;5.966;2022-08-01T06:15:13;19.90;99.90
9752;DHT22;4915;51.226;5.966;2022-08-01T06:17:41;20.00;99.90
9752;DHT22;4915;51.226;5.966;2022-08-01T06:20:10;20.00;99.90
9752;DHT22;4915;51.226;5.966;2022-08-01T06:22:37;19.90;99.90
9752;DHT22;4915;51.226;5.966;2022-08-01T06:25:06;19.90;99.90
9752;DHT22;4915;51.226;5.966;2022-08-01T06:27:34;20.00;99.90
9752;DHT22;4915;51.226;5.966;2022-08-01T06:30:01;20.00;99.90
9752;DHT22;4915;51.226;5.966;2022-08-01T06:32:28;20.00;99.90
9752;DHT22;4915;51.226;5.966;2022-08-01T06:34:57;20.10;99.90
9752;DHT22;4915;51.226;5.966;2022-08-01T06:37:28;20.20;99.90
9752;DHT22;4915;51.226;5.966;2022-08-01T06:39:55;20.20;99.90
9752;DHT22;4915;51.226;5.966;2022-08-01T06:42:22;20.40;99.90
9752;DHT22;4915;51.226;5.966;2022-08-01T06:44:49;20.50;99.90
9752;DHT22;4915;51.226;5.966;2022-08-01T06:47:16;20.70;99.90
9752;DHT22;4915;51.226;5.966;2022-08-01T06:49:43;20.80;99.90
9752;DHT22;4915;51.226;5.966;2022-08-01T06:52:11;20.80;99.90
9752;DHT22;4915;51.226;5.966;2022-08-01T06:54:39;20.80;99.90
9752;DHT22;4915;51.226;5.966;2022-08-01T06:57:06;20.80;99.90
9752;DHT22;4915;51.226;5.966;2022-08-01T06:59:33;21.10;99.90
9752;DHT22;4915;51.226;5.966;2022-08-01T07:02:00;21.20;99.90
9752;DHT22;4915;51.226;5.966;2022-08-01T07:04:27;21.20;99.90
9752;DHT22;4915;51.226;5.966;2022-08-01T07:06:55;21.30;99.90
9752;DHT22;4915;51.226;5.966;2022-08-01T07:09:22;21.20;99.90
9752;DHT22;4915;51.226;5.966;2022-08-01T07:11:50;21.10;99.90
9752;DHT22;4915;51.226;5.966;2022-08-01T07:14:18;21.10;99.90
9752;DHT22;4915;51.226;5.966;2022-08-01T07:16:45;21.10;99.90
9752;DHT22;4915;51.226;5.966;2022-08-01T07:19:12;21.10;99.90
9752;DHT22;4915;51.226;5.966;2022-08-01T07:21:39;21.10;99.90
9752;DHT22;4915;51.226;5.966;2022-08-01T07:24:07;21.30;99.90
9752;DHT22;4915;51.226;5.966;2022-08-01T07:26:34;21.50;99.90
9752;DHT22;4915;51.226;5.966;2022-08-01T07:29:03;21.80;99.90
9752;DHT22;4915;51.226;5.966;2022-08-01T07:31:30;22.20;99.90
9752;DHT22;4915;51.226;5.966;2022-08-01T07:33:57;23.00;99.90
9752;DHT22;4915;51.226;5.966;2022-08-01T07:36:24;23.80;99.90
9752;DHT22;4915;51.226;5.966;2022-08-01T07:38:51;23.60;99.90
9752;DHT22;4915;51.226;5.966;2022-08-01T07:41:18;23.50;99.90
9752;DHT22;4915;51.226;5.966;2022-08-01T07:43:45;23.10;99.90
9752;DHT22;4915;51.226;5.966;2022-08-01T07:46:16;23.00;99.90
9752;DHT22;4915;51.226;5.966;2022-08-01T07:48:43;22.90;99.90
9752;DHT22;4915;51.226;5.966;2022-08-01T07:51:10;22.80;99.90
9752;DHT22;4915;51.226;5.966;2022-08-01T07:53:37;22.70;99.90
9752;DHT22;4915;51.226;5.966;2022-08-01T07:56:04;22.60;99.90
9752;DHT22;4915;51.226;5.966;2022-08-01T07:58:32;22.60;99.90
9752;DHT22;4915;51.226;5.966;2022-08-01T08:00:59;22.60;99.90
9752;DHT22;4915;51.226;5.966;2022-08-01T08:03:27;22.70;99.90
9752;DHT22;4915;51.226;5.966;2022-08-01T08:05:54;22.50;99.90
9752;DHT22;4915;51.226;5.966;2022-08-01T08:08:21;22.40;99.90
9752;DHT22;4915;51.226;5.966;2022-08-01T08:10:49;22.30;99.90
9752;DHT22;4915;51.226;5.966;2022-08-01T08:13:16;22.30;99.90
9752;DHT22;4915;51.226;5.966;2022-08-01T08:15:43;22.50;99.90
9752;DHT22;4915;51.226;5.966;2022-08-01T08:18:10;23.10;99.90
9752;DHT22;4915;51.226;5.966;2022-08-01T08:20:39;23.50;99.90
9752;DHT22;4915;51.226;5.966;2022-08-01T08:23:06;23.60;99.90
9752;DHT22;4915;51.226;5.966;2022-08-01T08:25:47;23.90;99.90
9752;DHT22;4915;51.226;5.966;2022-08-01T08:28:14;24.00;99.90
9752;DHT22;4915;51.226;5.966;2022-08-01T08:30:41;23.60;99.90
9752;DHT22;4915;51.226;5.966;2022-08-01T08:33:08;24.00;99.90
9752;DHT22;4915;51.226;5.966;2022-08-01T08:35:35;23.90;99.90
9752;DHT22;4915;51.226;5.966;2022-08-01T08:38:04;23.80;99.90
9752;DHT22;4915;51.226;5.966;2022-08-01T08:40:32;24.00;99.90
9752;DHT22;4915;51.226;5.966;2022-08-01T08:43:03;24.80;99.90
9752;DHT22;4915;51.226;5.966;2022-08-01T08:45:31;25.60;99.90
9752;DHT22;4915;51.226;5.966;2022-08-01T08:47:58;26.10;99.90
9752;DHT22;4915;51.226;5.966;2022-08-01T08:50:26;27.20;99.90
9752;DHT22;4915;51.226;5.966;2022-08-01T08:52:55;27.80;99.90
9752;DHT22;4915;51.226;5.966;2022-08-01T08:55:24;27.10;99.90
9752;DHT22;4915;51.226;5.966;2022-08-01T08:57:51;26.30;99.90
9752;DHT22;4915;51.226;5.966;2022-08-01T09:00:19;25.80;99.90
9752;DHT22;4915;51.226;5.966;2022-08-01T09:02:47;25.10;99.90
9752;DHT22;4915;51.226;5.966;2022-08-01T09:05:16;25.00;99.90
9752;DHT22;4915;51.226;5.966;2022-08-01T09:07:51;25.00;99.90
9752;DHT22;4915;51.226;5.966;2022-08-01T09:10:18;25.00;99.90
9752;DHT22;4915;51.226;5.966;2022-08-01T09:13:07;25.10;99.90
9752;DHT22;4915;51.226;5.966;2022-08-01T09:15:44;25.70;99.90
9752;DHT22;4915;51.226;5.966;2022-08-01T09:18:27;26.40;99.90
9752;DHT22;4915;51.226;5.966;2022-08-01T09:21:12;27.10;1.00
9752;DHT22;4915;51.226;5.966;2022-08-01T09:23:41;27.70;99.90
9752;DHT22;4915;51.226;5.966;2022-08-01T09:26:11;27.60;99.90
9752;DHT22;4915;51.226;5.966;2022-08-01T09:28:40;28.40;99.90
9752;DHT22;4915;51.226;5.966;2022-08-01T09:31:08;27.80;99.90
9752;DHT22;4915;51.226;5.966;2022-08-01T09:33:50;27.40;1.00
9752;DHT22;4915;51.226;5.966;2022-08-01T09:36:17;27.40;99.90
9752;DHT22;4915;51.226;5.966;2022-08-01T09:38:45;27.00;1.00
9752;DHT22;4915;51.226;5.966;2022-08-01T09:41:12;26.70;1.00
9752;DHT22;4915;51.226;5.966;2022-08-01T09:43:48;26.70;1.00
9752;DHT22;4915;51.226;5.966;2022-08-01T09:46:16;27.80;1.00
9752;DHT22;4915;51.226;5.966;2022-08-01T09:48:58;28.40;1.00
9752;DHT22;4915;51.226;5.966;2022-08-01T09:51:31;28.20;99.90
9752;DHT22;4915;51.226;5.966;2022-08-01T09:53:59;28.00;30.20
9752;DHT22;4915;51.226;5.966;2022-08-01T09:56:36;27.00;1.00
9752;DHT22;4915;51.226;5.966;2022-08-01T09:59:05;27.00;1.00
9752;DHT22;4915;51.226;5.966;2022-08-01T10:01:43;26.90;1.00
9752;DHT22;4915;51.226;5.966;2022-08-01T10:04:12;28.10;1.00
9752;DHT22;4915;51.226;5.966;2022-08-01T10:06:40;28.70;99.90
9752;DHT22;4915;51.226;5.966;2022-08-01T10:09:10;27.90;99.90
9752;DHT22;4915;51.226;5.966;2022-08-01T10:11:40;27.50;99.90
9752;DHT22;4915;51.226;5.966;2022-08-01T10:14:09;27.70;99.90
9752;DHT22;4915;51.226;5.966;2022-08-01T10:16:38;27.60;1.00
9752;DHT22;4915;51.226;5.966;2022-08-01T10:19:06;28.00;99.90
9752;DHT22;4915;51.226;5.966;2022-08-01T10:21:36;27.80;1.00
9752;DHT22;4915;51.226;5.966;2022-08-01T10:24:05;29.10;1.00
9752;DHT22;4915;51.226;5.966;2022-08-01T10:26:36;29.50;1.00
9752;DHT22;4915;51.226;5.966;2022-08-01T10:29:05;30.20;1.00
9752;DHT22;4915;51.226;5.966;2022-08-01T10:31:34;30.20;1.00
9752;DHT22;4915;51.226;5.966;2022-08-01T10:34:01;28.80;1.00
9752;DHT22;4915;51.226;5.966;2022-08-01T10:36:29;27.90;1.00
9752;DHT22;4915;51.226;5.966;2022-08-01T10:38:59;27.20;1.00
9752;DHT22;4915;51.226;5.966;2022-08-01T10:41:27;27.40;1.00
9752;DHT22;4915;51.226;5.966;2022-08-01T10:43:55;27.10;1.00
9752;DHT22;4915;51.226;5.966;2022-08-01T10:46:23;27.70;99.90
9752;DHT22;4915;51.226;5.966;2022-08-01T10:48:57;28.60;99.90
9752;DHT22;4915;51.226;5.966;2022-08-01T10:51:27;29.30;99.90
9752;DHT22;4915;51.226;5.966;2022-08-01T10:53:54;28.40;99.90
9752;DHT22;4915;51.226;5.966;2022-08-01T10:56:23;28.30;99.90
9752;DHT22;4915;51.226;5.966;2022-08-01T10:59:00;28.20;99.90
9752;DHT22;4915;51.226;5.966;2022-08-01T11:01:30;28.90;99.90
9752;DHT22;4915;51.226;5.966;2022-08-01T11:04:05;28.80;99.90
9752;DHT22;4915;51.226;5.966;2022-08-01T11:06:51;28.10;99.90
9752;DHT22;4915;51.226;5.966;2022-08-01T11:09:26;27.30;99.90
9752;DHT22;4915;51.226;5.966;2022-08-01T11:11:59;27.90;1.00
9752;DHT22;4915;51.226;5.966;2022-08-01T11:14:27;28.40;99.90
9752;DHT22;4915;51.226;5.966;2022-08-01T11:16:55;28.30;99.90
9752;DHT22;4915;51.226;5.966;2022-08-01T11:19:23;28.00;99.90
9752;DHT22;4915;51.226;5.966;2022-08-01T11:21:59;28.00;99.90
9752;DHT22;4915;51.226;5.966;2022-08-01T11:24:54;27.90;99.90
9752;DHT22;4915;51.226;5.966;2022-08-01T11:27:26;28.00;99.90
9752;DHT22;4915;51.226;5.966;2022-08-01T11:30:21;27.80;99.90
9752;DHT22;4915;51.226;5.966;2022-08-01T11:32:53;27.40;99.90
9752;DHT22;4915;51.226;5.966;2022-08-01T11:35:23;27.70;99.90
9752;DHT22;4915;51.226;5.966;2022-08-01T11:37:53;28.50;95.30
9752;DHT22;4915;51.226;5.966;2022-08-01T11:40:23;28.00;1.00
9752;DHT22;4915;51.226;5.966;2022-08-01T11:43:17;28.30;10.90
9752;DHT22;4915;51.226;5.966;2022-08-01T11:45:47;28.80;1.00
9752;DHT22;4915;51.226;5.966;2022-08-01T11:48:18;29.30;14.80
9752;DHT22;4915;51.226;5.966;2022-08-01T11:50:47;29.30;1.00
9752;DHT22;4915;51.226;5.966;2022-08-01T11:53:14;29.70;10.70
9752;DHT22;4915;51.226;5.966;2022-08-01T11:55:45;30.00;92.30
9752;DHT22;4915;51.226;5.966;2022-08-01T11:58:14;30.10;99.90
9752;DHT22;4915;51.226;5.966;2022-08-01T12:00:42;30.20;1.00
9752;DHT22;4915;51.226;5.966;2022-08-01T12:03:16;29.60;99.90
9752;DHT22;4915;51.226;5.966;2022-08-01T12:05:45;29.00;1.00
9752;DHT22;4915;51.226;5.966;2022-08-01T12:08:12;29.80;99.90
9752;DHT22;4915;51.226;5.966;2022-08-01T12:10:39;30.10;99.90
9752;DHT22;4915;51.226;5.966;2022-08-01T12:13:07;29.40;99.90
9752;DHT22;4915;51.226;5.966;2022-08-01T12:15:36;29.10;1.00
9752;DHT22;4915;51.226;5.966;2022-08-01T12:18:05;29.40;99.90
9752;DHT22;4915;51.226;5.966;2022-08-01T12:20:33;29.20;99.90
9752;DHT22;4915;51.226;5.966;2022-08-01T12:23:03;28.80;99.90
9752;DHT22;4915;51.226;5.966;2022-08-01T12:25:31;28.60;1.00
9752;DHT22;4915;51.226;5.966;2022-08-01T12:28:00;28.40;1.00
9752;DHT22;4915;51.226;5.966;2022-08-01T12:30:28;28.20;99.90
9752;DHT22;4915;51.226;5.966;2022-08-01T12:32:57;28.00;1.00
9752;DHT22;4915;51.226;5.966;2022-08-01T12:35:26;27.70;1.00
9752;DHT22;4915;51.226;5.966;2022-08-01T12:37:55;27.40;99.90
9752;DHT22;4915;51.226;5.966;2022-08-01T12:40:25;27.00;1.00
9752;DHT22;4915;51.226;5.966;2022-08-01T12:42:54;26.90;99.90
9752;DHT22;4915;51.226;5.966;2022-08-01T12:45:23;27.30;1.00
9752;DHT22;4915;51.226;5.966;2022-08-01T12:47:52;27.30;99.90
9752;DHT22;4915;51.226;5.966;2022-08-01T12:50:22;27.30;99.90
9752;DHT22;4915;51.226;5.966;2022-08-01T12:52:50;27.50;74.20
9752;DHT22;4915;51.226;5.966;2022-08-01T12:55:18;27.30;1.00
9752;DHT22;4915;51.226;5.966;2022-08-01T12:57:49;26.50;1.00
9752;DHT22;4915;51.226;5.966;2022-08-01T13:00:22;26.70;99.90
9752;DHT22;4915;51.226;5.966;2022-08-01T13:03:00;26.70;1.00
9752;DHT22;4915;51.226;5.966;2022-08-01T13:05:28;26.60;99.90
9752;DHT22;4915;51.226;5.966;2022-08-01T13:08:10;26.60;1.00
9752;DHT22;4915;51.226;5.966;2022-08-01T13:10:37;26.40;1.00
9752;DHT22;4915;51.226;5.966;2022-08-01T13:13:06;26.30;1.00
9752;DHT22;4915;51.226;5.966;2022-08-01T13:15:35;26.30;99.90
9752;DHT22;4915;51.226;5.966;2022-08-01T13:18:22;26.20;99.90
9752;DHT22;4915;51.226;5.966;2022-08-01T13:20:50;26.30;1.00
9752;DHT22;4915;51.226;5.966;2022-08-01T13:23:18;26.40;99.90
9752;DHT22;4915;51.226;5.966;2022-08-01T13:25:48;26.50;99.90
9752;DHT22;4915;51.226;5.966;2022-08-01T13:28:18;26.70;1.00
9752;DHT22;4915;51.226;5.966;2022-08-01T13:30:57;26.90;1.00
9752;DHT22;4915;51.226;5.966;2022-08-01T13:33:26;27.10;99.90
9752;DHT22;4915;51.226;5.966;2022-08-01T13:35:55;27.00;1.00
9752;DHT22;4915;51.226;5.966;2022-08-01T13:38:23;26.80;99.90
9752;DHT22;4915;51.226;5.966;2022-08-01T13:41:04;26.70;99.90
9752;DHT22;4915;51.226;5.966;2022-08-01T13:43:32;26.30;99.90
9752;DHT22;4915;51.226;5.966;2022-08-01T13:46:00;26.00;99.90
9752;DHT22;4915;51.226;5.966;2022-08-01T13:48:28;25.70;1.00
9752;DHT22;4915;51.226;5.966;2022-08-01T13:50:55;25.50;99.90
9752;DHT22;4915;51.226;5.966;2022-08-01T13:53:22;25.50;47.90
9752;DHT22;4915;51.226;5.966;2022-08-01T13:55:49;25.60;1.00
9752;DHT22;4915;51.226;5.966;2022-08-01T13:58:17;25.80;1.00
9752;DHT22;4915;51.226;5.966;2022-08-01T14:00:45;26.00;99.90
9752;DHT22;4915;51.226;5.966;2022-08-01T14:03:12;26.10;99.90
9752;DHT22;4915;51.226;5.966;2022-08-01T14:05:42;26.30;1.00
9752;DHT22;4915;51.226;5.966;2022-08-01T14:08:09;26.30;1.00
9752;DHT22;4915;51.226;5.966;2022-08-01T14:10:36;26.30;1.00
9752;DHT22;4915;51.226;5.966;2022-08-01T14:13:04;26.40;1.00
9752;DHT22;4915;51.226;5.966;2022-08-01T14:15:31;26.30;19.70
9752;DHT22;4915;51.226;5.966;2022-08-01T14:18:00;26.40;14.80
9752;DHT22;4915;51.226;5.966;2022-08-01T14:23:02;25.80;1.00
9752;DHT22;4915;51.226;5.966;2022-08-01T14:25:30;25.80;49.50
9752;DHT22;4915;51.226;5.966;2022-08-01T14:27:57;26.10;1.00
9752;DHT22;4915;51.226;5.966;2022-08-01T14:30:24;26.30;1.00
9752;DHT22;4915;51.226;5.966;2022-08-01T14:32:51;26.00;99.90
9752;DHT22;4915;51.226;5.966;2022-08-01T14:35:20;26.30;1.00
9752;DHT22;4915;51.226;5.966;2022-08-01T14:37:47;26.30;99.90
9752;DHT22;4915;51.226;5.966;2022-08-01T14:40:14;26.20;99.90
9752;DHT22;4915;51.226;5.966;2022-08-01T14:42:41;26.40;99.90
9752;DHT22;4915;51.226;5.966;2022-08-01T14:45:10;26.20;99.90
9752;DHT22;4915;51.226;5.966;2022-08-01T14:47:39;26.10;92.00
9752;DHT22;4915;51.226;5.966;2022-08-01T18:28:15;22.40;1.00
9752;DHT22;4915;51.226;5.966;2022-08-01T18:30:43;22.30;1.00
9752;DHT22;4915;51.226;5.966;2022-08-01T18:33:10;22.30;1.00
9752;DHT22;4915;51.226;5.966;2022-08-01T18:35:37;22.30;99.90
9752;DHT22;4915;51.226;5.966;2022-08-01T18:38:04;22.20;99.90
9752;DHT22;4915;51.226;5.966;2022-08-01T18:40:32;22.10;1.00
9752;DHT22;4915;51.226;5.966;2022-08-01T18:42:59;22.10;99.90
9752;DHT22;4915;51.226;5.966;2022-08-01T18:45:27;22.00;99.90
9752;DHT22;4915;51.226;5.966;2022-08-01T18:47:54;21.90;1.00
9752;DHT22;4915;51.226;5.966;2022-08-01T18:50:22;21.90;1.00
9752;DHT22;4915;51.226;5.966;2022-08-01T18:52:51;21.80;70.60
9752;DHT22;4915;51.226;5.966;2022-08-01T18:55:19;21.80;99.90
9752;DHT22;4915;51.226;5.966;2022-08-01T18:57:46;21.70;1.00
9752;DHT22;4915;51.226;5.966;2022-08-01T19:00:14;21.60;1.00
9752;DHT22;4915;51.226;5.966;2022-08-01T19:02:43;21.50;99.90
9752;DHT22;4915;51.226;5.966;2022-08-01T19:05:10;21.50;99.90
9752;DHT22;4915;51.226;5.966;2022-08-01T19:07:37;21.40;1.00
9752;DHT22;4915;51.226;5.966;2022-08-01T19:10:05;21.30;99.90
9752;DHT22;4915;51.226;5.966;2022-08-01T19:12:32;21.30;35.00
9752;DHT22;4915;51.226;5.966;2022-08-01T19:15:00;21.20;99.90
9752;DHT22;4915;51.226;5.966;2022-08-01T19:17:27;21.10;1.00
9752;DHT22;4915;51.226;5.966;2022-08-01T19:19:55;21.00;1.00
9752;DHT22;4915;51.226;5.966;2022-08-01T19:22:23;21.00;1.00
9752;DHT22;4915;51.226;5.966;2022-08-01T19:24:50;20.90;27.00
9752;DHT22;4915;51.226;5.966;2022-08-01T19:27:20;20.80;99.90
9752;DHT22;4915;51.226;5.966;2022-08-01T19:29:51;20.70;99.90
9752;DHT22;4915;51.226;5.966;2022-08-01T19:32:20;20.70;99.90
9752;DHT22;4915;51.226;5.966;2022-08-01T19:35:01;20.60;99.90
9752;DHT22;4915;51.226;5.966;2022-08-01T19:37:29;20.50;99.90
9752;DHT22;4915;51.226;5.966;2022-08-01T19:39:57;20.40;1.00
9752;DHT22;4915;51.226;5.966;2022-08-01T19:42:24;20.30;1.00
9752;DHT22;4915;51.226;5.966;2022-08-01T19:44:52;20.20;1.00
9752;DHT22;4915;51.226;5.966;2022-08-01T19:47:19;20.20;1.00
9752;DHT22;4915;51.226;5.966;2022-08-01T19:49:46;20.20;1.00
9752;DHT22;4915;51.226;5.966;2022-08-01T19:52:18;20.10;1.00
9752;DHT22;4915;51.226;5.966;2022-08-01T19:54:46;20.10;60.60
9752;DHT22;4915;51.226;5.966;2022-08-01T19:57:16;20.00;99.90
9752;DHT22;4915;51.226;5.966;2022-08-01T19:59:45;19.90;99.90